Time;durP1;ratioP1;P1;durP2;ratioP2;P2;SDS_P1;SDS_P2;PMS_P1;PMS_P2;Temp;Humidity;BMP_temperature;BMP_pressure;BME280_temperature;BME280_humidity;BME280_pressure;Samples;Min_cycle;Max_cycle;Signal;HPM_P1;HPM_P2
2024/03/22 00:00:30;;;;;;;6.03;2.97;;;6.80;97.10;;;;;;5044963;28;20037;-65
2024/03/22 00:02:56;;;;;;;8.82;4.13;;;6.80;97.10;;;;;;5042134;28;22249;-66
2024/03/22 00:05:21;;;;;;;7.40;4.03;;;6.90;97.00;;;;;;5041518;28;20090;-65
2024/03/22 00:07:47;;;;;;;8.43;4.03;;;6.90;97.00;;;;;;5052430;28;20048;-66
2024/03/22 00:10:13;;;;;;;7.53;3.63;;;6.90;97.00;;;;;;5062695;28;20269;-66
2024/03/22 00:12:39;;;;;;;7.68;3.60;;;6.80;97.00;;;;;;5064200;28;20115;-66
2024/03/22 00:15:05;;;;;;;6.65;3.50;;;6.90;97.10;;;;;;5062328;28;20077;-66
2024/03/22 00:17:31;;;;;;;5.53;3.38;;;6.90;97.20;;;;;;5060923;28;20463;-66
2024/03/22 00:19:56;;;;;;;10.05;4.63;;;6.90;97.20;;;;;;5059793;28;20059;-66
2024/03/22 00:22:22;;;;;;;8.00;4.07;;;6.90;97.00;;;;;;5061034;28;20024;-68
2024/03/22 00:24:47;;;;;;;7.82;4.07;;;6.90;97.00;;;;;;5032948;28;20474;-66
2024/03/22 00:27:13;;;;;;;8.90;4.57;;;6.90;97.00;;;;;;5061845;28;20056;-66
2024/03/22 00:29:38;;;;;;;9.70;4.53;;;7.00;97.00;;;;;;5063652;28;20040;-66
2024/03/22 00:32:04;;;;;;;8.80;4.07;;;7.00;97.00;;;;;;5060416;28;20036;-66
2024/03/22 00:34:30;;;;;;;7.35;4.30;;;7.00;96.90;;;;;;5058178;28;20078;-65
2024/03/22 00:36:55;;;;;;;8.43;4.25;;;7.10;96.90;;;;;;5060834;28;20041;-65
2024/03/22 00:39:21;;;;;;;8.45;4.22;;;7.10;96.80;;;;;;5065017;28;20035;-66
2024/03/22 00:41:46;;;;;;;8.05;3.63;;;7.10;96.80;;;;;;5064753;28;20122;-65
2024/03/22 00:44:12;;;;;;;8.23;4.70;;;7.10;96.80;;;;;;5068958;28;20136;-65
2024/03/22 00:46:37;;;;;;;9.45;4.63;;;7.10;96.90;;;;;;5063901;28;20033;-65
2024/03/22 00:49:04;;;;;;;8.20;4.57;;;7.10;96.80;;;;;;5068525;28;20403;-65
2024/03/22 00:51:29;;;;;;;11.02;5.10;;;7.10;96.80;;;;;;5068869;28;20028;-65
2024/03/22 00:53:55;;;;;;;9.18;4.47;;;7.10;96.80;;;;;;5065633;28;20625;-65
2024/03/22 00:56:20;;;;;;;9.52;5.03;;;7.10;96.90;;;;;;5064105;28;20060;-65
2024/03/22 00:58:46;;;;;;;9.25;3.88;;;7.10;97.00;;;;;;5067258;28;20175;-66
2024/03/22 01:01:11;;;;;;;11.10;5.28;;;7.10;97.00;;;;;;5061436;28;20361;-66
2024/03/22 01:03:37;;;;;;;9.55;4.97;;;7.10;97.00;;;;;;5065096;28;20211;-65
2024/03/22 01:06:03;;;;;;;8.07;4.53;;;;;;;;;;5062780;28;20036;-66
2024/03/22 01:08:28;;;;;;;10.65;5.22;;;7.20;96.90;;;;;;5063966;28;20106;-65
2024/03/22 01:10:54;;;;;;;10.90;5.78;;;7.20;96.90;;;;;;5061783;28;20028;-66
2024/03/22 01:13:19;;;;;;;8.70;4.50;;;7.20;96.90;;;;;;5068573;28;20032;-65
2024/03/22 01:15:45;;;;;;;9.00;5.18;;;7.20;96.90;;;;;;5062082;28;20067;-66
2024/03/22 01:18:11;;;;;;;10.45;5.28;;;7.20;97.00;;;;;;5062010;28;20039;-66
2024/03/22 01:20:37;;;;;;;10.02;4.88;;;7.30;97.00;;;;;;5063123;28;20029;-65
2024/03/22 01:23:02;;;;;;;10.27;4.88;;;7.30;97.00;;;;;;5041416;28;20345;-65
2024/03/22 01:25:28;;;;;;;9.82;4.82;;;7.30;97.00;;;;;;5064873;28;20496;-65
2024/03/22 01:27:55;;;;;;;10.23;5.70;;;7.30;96.80;;;;;;5063351;28;20044;-66
2024/03/22 01:30:20;;;;;;;8.73;5.03;;;7.30;96.90;;;;;;5060411;28;20122;-66
2024/03/22 01:32:45;;;;;;;10.10;6.10;;;7.30;96.80;;;;;;5063819;28;20356;-65
2024/03/22 01:35:11;;;;;;;9.88;5.72;;;7.40;96.80;;;;;;5065411;28;20132;-65
2024/03/22 01:37:36;;;;;;;11.02;5.80;;;7.40;96.70;;;;;;5066847;28;20039;-65
2024/03/22 01:40:04;;;;;;;10.52;4.85;;;7.30;96.80;;;;;;5063159;28;20131;-66
2024/03/22 01:42:30;;;;;;;12.25;5.93;;;7.40;96.80;;;;;;5060746;28;20040;-65
2024/03/22 01:44:56;;;;;;;10.35;5.55;;;7.40;96.90;;;;;;5065480;28;20222;-66
2024/03/22 01:47:21;;;;;;;11.18;6.40;;;7.40;97.00;;;;;;5066973;28;20040;-65
2024/03/22 01:49:48;;;;;;;13.50;6.03;;;7.40;97.00;;;;;;5063471;28;20147;-65
2024/03/22 01:52:14;;;;;;;11.27;5.97;;;7.40;96.90;;;;;;5068470;28;20037;-65
2024/03/22 01:54:40;;;;;;;10.88;6.18;;;7.40;96.90;;;;;;5062691;28;20044;-65
2024/03/22 01:57:06;;;;;;;10.65;5.75;;;7.40;96.80;;;;;;5061707;28;20067;-65
2024/03/22 01:59:33;;;;;;;11.65;6.35;;;7.40;96.90;;;;;;5066728;28;20123;-65
2024/03/22 02:01:59;;;;;;;13.65;7.13;;;7.40;96.90;;;;;;5056439;28;20028;-66
2024/03/22 02:04:24;;;;;;;12.60;6.78;;;7.50;96.70;;;;;;5062291;28;20040;-65
2024/03/22 02:06:50;;;;;;;12.38;6.32;;;7.50;96.60;;;;;;5065002;28;20071;-65
2024/03/22 02:09:15;;;;;;;12.98;6.65;;;7.50;96.60;;;;;;5065415;28;20437;-66
2024/03/22 02:11:41;;;;;;;13.57;7.07;;;7.50;96.60;;;;;;5060896;28;20112;-65
2024/03/22 02:14:07;;;;;;;14.40;7.80;;;7.50;96.60;;;;;;5064461;28;20036;-65
2024/03/22 02:16:32;;;;;;;12.27;6.25;;;7.50;96.60;;;;;;5064376;28;20025;-65
2024/03/22 02:18:58;;;;;;;14.13;7.57;;;7.60;96.30;;;;;;5064824;28;20107;-65
2024/03/22 02:21:23;;;;;;;14.48;7.78;;;7.60;96.20;;;;;;5065286;28;20041;-66
2024/03/22 02:23:49;;;;;;;13.75;7.07;;;7.60;96.20;;;;;;5038053;28;20044;-65
2024/03/22 02:26:14;;;;;;;15.13;7.90;;;7.60;96.20;;;;;;5058091;28;20040;-66
2024/03/22 02:28:40;;;;;;;14.25;6.35;;;7.70;96.10;;;;;;5072403;28;20082;-65
2024/03/22 02:31:05;;;;;;;15.73;8.55;;;7.70;96.20;;;;;;5063618;28;20028;-65
2024/03/22 02:33:31;;;;;;;12.73;7.05;;;7.70;96.30;;;;;;5064261;28;20035;-65
2024/03/22 02:35:57;;;;;;;14.70;7.53;;;7.70;96.20;;;;;;5063877;28;20486;-66
2024/03/22 02:38:23;;;;;;;11.63;7.43;;;7.80;96.10;;;;;;5060499;28;20097;-66
2024/03/22 02:40:51;;;;;;;13.57;7.15;;;7.80;96.00;;;;;;5062633;28;20060;-65
2024/03/22 02:43:21;;;;;;;13.50;7.18;;;7.80;96.00;;;;;;5065182;28;20081;-65
2024/03/22 02:45:47;;;;;;;14.38;7.68;;;7.80;96.00;;;;;;5063656;28;20082;-65
2024/03/22 02:48:12;;;;;;;14.65;8.13;;;7.80;96.00;;;;;;5061776;28;20078;-65
2024/03/22 02:50:38;;;;;;;14.13;8.13;;;7.90;95.90;;;;;;5070322;28;20407;-65
2024/03/22 02:53:04;;;;;;;16.30;8.48;;;7.90;95.90;;;;;;5064370;28;20052;-66
2024/03/22 02:55:36;;;;;;;17.00;8.82;;;7.90;95.80;;;;;;5060117;28;20106;-65
2024/03/22 02:58:01;;;;;;;15.50;8.90;;;8.00;95.70;;;;;;5058568;28;20455;-65
2024/03/22 03:00:27;;;;;;;17.15;9.05;;;;;;;;;;5061519;28;20069;-65
2024/03/22 03:02:53;;;;;;;16.08;7.97;;;7.90;95.80;;;;;;5058261;28;20064;-65
2024/03/22 03:05:18;;;;;;;17.75;8.70;;;8.00;95.70;;;;;;5059398;28;20039;-65
2024/03/22 03:07:44;;;;;;;16.38;8.98;;;8.00;95.80;;;;;;5061425;28;20048;-66
2024/03/22 03:10:10;;;;;;;18.23;9.02;;;8.10;95.60;;;;;;5059736;28;20088;-65
2024/03/22 03:12:35;;;;;;;13.30;7.43;;;8.10;95.60;;;;;;5061278;28;20109;-65
2024/03/22 03:15:01;;;;;;;17.60;8.63;;;8.10;95.70;;;;;;5066020;28;20047;-65
2024/03/22 03:17:26;;;;;;;18.20;9.02;;;8.10;95.70;;;;;;5062688;28;20039;-66
2024/03/22 03:19:52;;;;;;;18.05;9.02;;;8.10;95.60;;;;;;5064862;28;20048;-65
2024/03/22 03:22:17;;;;;;;18.70;9.80;;;8.10;95.60;;;;;;5065188;28;20041;-65
2024/03/22 03:24:43;;;;;;;15.35;8.73;;;8.10;95.60;;;;;;5039058;28;20060;-65
2024/03/22 03:27:09;;;;;;;14.30;8.35;;;8.10;95.60;;;;;;5062963;28;20043;-65
2024/03/22 03:29:34;;;;;;;17.23;9.32;;;8.10;95.60;;;;;;5066058;28;20037;-65
2024/03/22 03:32:00;;;;;;;16.73;8.68;;;8.10;95.60;;;;;;5065027;28;20170;-65
2024/03/22 03:34:26;;;;;;;19.45;9.73;;;;;;;;;;5060669;28;20078;-65
2024/03/22 03:36:51;;;;;;;20.20;10.07;;;8.20;95.50;;;;;;5060307;28;20081;-66
2024/03/22 03:39:17;;;;;;;18.02;10.40;;;8.20;95.60;;;;;;5060774;28;20048;-66
2024/03/22 03:41:42;;;;;;;20.45;10.10;;;8.20;95.70;;;;;;5057508;28;20516;-65
2024/03/22 03:44:07;;;;;;;18.08;10.10;;;8.20;95.70;;;;;;5064035;28;20051;-65
2024/03/22 03:46:33;;;;;;;19.48;9.43;;;8.10;95.80;;;;;;5063665;28;20119;-65
2024/03/22 03:48:59;;;;;;;20.10;9.55;;;8.10;95.90;;;;;;5063815;28;20031;-65
2024/03/22 03:51:24;;;;;;;18.30;8.75;;;8.10;96.00;;;;;;5058385;28;20079;-65
2024/03/22 03:53:49;;;;;;;17.58;9.57;;;8.10;96.20;;;;;;5059484;28;20085;-66
2024/03/22 03:56:15;;;;;;;17.65;9.88;;;8.10;96.20;;;;;;5056714;28;20036;-65
2024/03/22 03:58:40;;;;;;;17.80;8.77;;;8.10;96.50;;;;;;5065654;28;20028;-66
2024/03/22 04:01:07;;;;;;;18.15;9.25;;;8.10;96.60;;;;;;5059860;28;20117;-65
2024/03/22 04:03:32;;;;;;;17.05;9.90;;;8.10;96.50;;;;;;5062901;28;20048;-65
2024/03/22 04:05:59;;;;;;;17.15;8.50;;;8.10;96.60;;;;;;5062149;28;20032;-65
2024/03/22 04:08:25;;;;;;;18.02;8.85;;;8.10;96.70;;;;;;5062823;28;20060;-65
2024/03/22 04:10:56;;;;;;;18.70;9.27;;;8.10;96.80;;;;;;5059257;28;20025;-65
2024/03/22 04:13:25;;;;;;;17.98;9.95;;;8.10;96.80;;;;;;5050071;28;20387;-65
2024/03/22 04:15:51;;;;;;;18.63;10.18;;;8.10;96.90;;;;;;5064662;28;20083;-65
2024/03/22 04:18:16;;;;;;;17.65;9.70;;;8.10;97.10;;;;;;5061087;28;20496;-65
2024/03/22 04:20:43;;;;;;;16.58;9.50;;;8.10;97.10;;;;;;5060418;28;20029;-66
2024/03/22 04:23:09;;;;;;;19.02;9.55;;;8.10;96.90;;;;;;5063577;28;20068;-65
2024/03/22 04:25:34;;;;;;;17.63;9.43;;;8.10;96.90;;;;;;5032974;28;20095;-65
2024/03/22 04:28:00;;;;;;;17.27;8.85;;;8.10;96.90;;;;;;5064594;28;20847;-66
2024/03/22 04:30:25;;;;;;;19.92;10.57;;;8.10;97.00;;;;;;5062542;28;20291;-65
2024/03/22 04:32:51;;;;;;;22.30;10.32;;;8.10;96.90;;;;;;5066296;28;20029;-66
2024/03/22 04:35:16;;;;;;;21.33;10.25;;;8.10;97.00;;;;;;5060834;28;20029;-65
2024/03/22 04:37:42;;;;;;;19.27;9.90;;;8.10;97.00;;;;;;5058493;28;20370;-66
2024/03/22 04:40:09;;;;;;;18.35;9.32;;;8.20;96.90;;;;;;5057506;28;20162;-65
2024/03/22 04:42:35;;;;;;;21.08;9.50;;;8.10;96.90;;;;;;5059786;28;20079;-65
2024/03/22 04:45:00;;;;;;;17.67;9.30;;;8.10;97.00;;;;;;5062393;28;20064;-65
2024/03/22 04:47:26;;;;;;;20.20;10.50;;;8.10;97.00;;;;;;5061288;28;20032;-66
2024/03/22 04:49:52;;;;;;;18.27;9.15;;;8.10;97.10;;;;;;5055367;28;20029;-65
2024/03/22 04:52:17;;;;;;;18.00;9.77;;;8.10;97.00;;;;;;5060004;28;20107;-66
2024/03/22 04:54:43;;;;;;;23.52;10.23;;;8.10;97.10;;;;;;5058487;28;20035;-65
2024/03/22 04:57:08;;;;;;;21.63;10.02;;;8.20;97.10;;;;;;5061613;28;20036;-66
2024/03/22 04:59:34;;;;;;;19.40;10.13;;;8.20;97.10;;;;;;5061909;28;20041;-65
2024/03/22 05:01:59;;;;;;;18.30;10.32;;;8.10;97.10;;;;;;5055079;28;20388;-66
2024/03/22 05:04:25;;;;;;;18.45;10.25;;;8.20;97.10;;;;;;5064172;28;20029;-65
2024/03/22 05:06:50;;;;;;;18.42;9.13;;;8.10;97.10;;;;;;5063297;28;20418;-65
2024/03/22 05:09:16;;;;;;;22.25;10.88;;;8.20;97.20;;;;;;5061060;28;20164;-65
2024/03/22 05:11:41;;;;;;;19.63;9.05;;;8.10;97.20;;;;;;5058768;28;20040;-67
2024/03/22 05:14:07;;;;;;;20.73;10.43;;;8.20;97.30;;;;;;5060954;28;20037;-65
2024/03/22 05:16:32;;;;;;;21.38;10.88;;;8.20;97.10;;;;;;5063767;28;20029;-65
2024/03/22 05:18:58;;;;;;;23.23;9.77;;;8.20;97.10;;;;;;5060410;28;20037;-66
2024/03/22 05:21:24;;;;;;;20.33;10.50;;;8.30;97.10;;;;;;5060230;28;20335;-66
2024/03/22 05:23:49;;;;;;;19.92;10.20;;;8.20;97.10;;;;;;5034887;28;20070;-65
2024/03/22 05:26:14;;;;;;;20.90;11.57;;;8.20;97.20;;;;;;5064905;28;20029;-65
2024/03/22 05:28:40;;;;;;;21.35;11.80;;;8.30;97.10;;;;;;5065852;28;20082;-65
2024/03/22 05:31:06;;;;;;;19.20;10.52;;;8.30;97.10;;;;;;5067417;28;20393;-63
2024/03/22 05:33:32;;;;;;;20.13;10.35;;;8.30;97.20;;;;;;5057275;28;20060;-64
2024/03/22 05:35:57;;;;;;;23.63;11.23;;;8.30;97.30;;;;;;5066182;28;20064;-63
2024/03/22 05:38:22;;;;;;;19.50;10.95;;;8.30;97.20;;;;;;5062824;28;20036;-63
2024/03/22 05:40:48;;;;;;;25.13;12.77;;;8.30;97.20;;;;;;5059624;28;20040;-63
2024/03/22 05:43:14;;;;;;;22.08;10.93;;;8.40;97.20;;;;;;5068750;28;20047;-63
2024/03/22 05:45:39;;;;;;;25.30;11.80;;;8.40;97.10;;;;;;5063548;28;20052;-65
2024/03/22 05:48:05;;;;;;;19.02;10.73;;;8.40;97.10;;;;;;5062268;28;20045;-63
2024/03/22 05:50:33;;;;;;;21.77;11.80;;;8.50;97.00;;;;;;5066121;28;20111;-64
2024/03/22 05:52:58;;;;;;;19.80;10.93;;;8.50;97.00;;;;;;5060029;28;20103;-63
2024/03/22 05:55:27;;;;;;;19.65;10.23;;;8.50;97.10;;;;;;5062325;28;20029;-65
2024/03/22 05:57:52;;;;;;;22.23;11.68;;;8.50;97.10;;;;;;5068627;28;20020;-64
2024/03/22 06:00:18;;;;;;;24.83;10.05;;;8.50;97.10;;;;;;5066984;28;20093;-63
2024/03/22 06:02:43;;;;;;;24.13;11.48;;;8.50;97.20;;;;;;5066896;28;20481;-63
2024/03/22 06:05:09;;;;;;;22.05;11.80;;;8.60;97.10;;;;;;5067733;28;20097;-63
2024/03/22 06:07:41;;;;;;;24.15;11.77;;;8.60;97.10;;;;;;5066707;28;20121;-63
2024/03/22 06:10:08;;;;;;;22.70;11.00;;;8.60;97.20;;;;;;5061819;28;20052;-65
2024/03/22 06:12:33;;;;;;;28.00;11.50;;;8.60;97.10;;;;;;5063615;28;20102;-63
2024/03/22 06:14:58;;;;;;;20.98;10.70;;;8.70;97.00;;;;;;5067368;28;20473;-63
2024/03/22 06:17:24;;;;;;;24.63;12.10;;;8.70;97.00;;;;;;5063114;28;20024;-63
2024/03/22 06:19:49;;;;;;;25.23;12.68;;;8.70;96.90;;;;;;5059296;28;20064;-63
2024/03/22 06:22:15;;;;;;;24.30;10.93;;;8.70;96.80;;;;;;5062044;28;20028;-63
2024/03/22 06:24:40;;;;;;;25.48;12.77;;;8.70;96.80;;;;;;5042108;28;20521;-63
2024/03/22 06:27:07;;;;;;;21.65;11.23;;;8.80;96.90;;;;;;5065623;28;20047;-63
2024/03/22 06:29:32;;;;;;;26.42;11.45;;;8.80;96.90;;;;;;5065383;28;20036;-65
2024/03/22 06:31:58;;;;;;;22.52;11.90;;;8.80;96.90;;;;;;5066855;28;20032;-65
2024/03/22 06:34:23;;;;;;;28.17;12.35;;;8.80;96.90;;;;;;5063710;28;20475;-66
2024/03/22 06:36:50;;;;;;;21.75;11.40;;;8.90;96.80;;;;;;5064490;28;20028;-66
2024/03/22 06:39:15;;;;;;;25.75;11.85;;;8.90;96.80;;;;;;5059222;28;20476;-67
2024/03/22 06:41:41;;;;;;;21.45;10.40;;;8.90;96.80;;;;;;5060027;28;20036;-66
2024/03/22 06:44:06;;;;;;;25.02;12.25;;;8.90;96.70;;;;;;5065134;28;20087;-67
2024/03/22 06:46:32;;;;;;;25.73;12.80;;;9.00;96.60;;;;;;5062507;28;20036;-66
2024/03/22 06:48:58;;;;;;;19.58;11.55;;;9.10;96.50;;;;;;5060039;28;20505;-68
2024/03/22 06:51:23;;;;;;;27.92;13.10;;;9.10;96.40;;;;;;5061748;28;20040;-67
2024/03/22 06:53:49;;;;;;;19.67;11.45;;;9.20;96.30;;;;;;5055584;28;20040;-66
2024/03/22 06:56:14;;;;;;;27.20;13.82;;;9.20;96.20;;;;;;5064087;28;20047;-67
2024/03/22 06:58:40;;;;;;;25.25;11.93;;;9.30;96.20;;;;;;5062281;28;20077;-66
2024/03/22 07:01:05;;;;;;;28.85;13.52;;;9.40;96.20;;;;;;5065561;28;20145;-66
2024/03/22 07:03:31;;;;;;;27.27;13.52;;;9.40;96.10;;;;;;5062178;28;20063;-66
2024/03/22 07:05:57;;;;;;;26.00;12.52;;;9.40;96.30;;;;;;5058286;28;20219;-65
2024/03/22 07:08:23;;;;;;;25.10;12.68;;;9.40;96.50;;;;;;5060292;28;20161;-65
2024/03/22 07:10:49;;;;;;;24.33;12.23;;;9.40;96.50;;;;;;5057673;28;20068;-65
2024/03/22 07:13:14;;;;;;;25.70;12.70;;;9.40;96.50;;;;;;5060254;28;20041;-65
2024/03/22 07:15:39;;;;;;;24.67;11.80;;;9.40;96.50;;;;;;5061161;28;20043;-66
2024/03/22 07:18:06;;;;;;;26.30;12.68;;;9.40;96.50;;;;;;5058235;28;20071;-65
2024/03/22 07:20:31;;;;;;;24.55;11.98;;;9.50;96.40;;;;;;5058886;28;20113;-66
2024/03/22 07:22:57;;;;;;;24.50;12.43;;;9.50;96.30;;;;;;5071202;28;20417;-65
2024/03/22 07:25:22;;;;;;;23.02;10.90;;;9.50;96.40;;;;;;5037152;28;20049;-67
2024/03/22 07:27:49;;;;;;;26.50;12.15;;;9.50;96.40;;;;;;5059561;28;20037;-66
2024/03/22 07:30:14;;;;;;;24.83;12.05;;;9.50;96.60;;;;;;5063394;28;20072;-66
2024/03/22 07:32:40;;;;;;;25.83;11.82;;;9.50;96.70;;;;;;5053694;28;20037;-65
2024/03/22 07:35:07;;;;;;;23.40;11.43;;;9.50;96.70;;;;;;5059888;28;20145;-65
2024/03/22 07:37:32;;;;;;;23.95;11.68;;;9.50;96.80;;;;;;5064025;28;20040;-65
2024/03/22 07:39:58;;;;;;;26.65;13.55;;;9.40;97.00;;;;;;5059737;28;20142;-65
2024/03/22 07:42:23;;;;;;;27.65;13.43;;;9.50;97.00;;;;;;5063068;28;20489;-66
2024/03/22 07:44:49;;;;;;;21.77;12.15;;;9.40;97.10;;;;;;5063159;28;20037;-65
2024/03/22 07:47:14;;;;;;;22.38;11.32;;;9.50;97.10;;;;;;5065802;28;20464;-65
2024/03/22 07:49:40;;;;;;;25.17;12.45;;;9.50;96.90;;;;;;5060854;28;20036;-65
2024/03/22 07:52:05;;;;;;;27.38;12.32;;;9.50;97.00;;;;;;5066010;28;20038;-65
2024/03/22 07:54:31;;;;;;;26.88;12.48;;;9.50;97.20;;;;;;5064239;28;20047;-66
2024/03/22 07:56:57;;;;;;;24.30;13.25;;;9.40;97.30;;;;;;5064291;28;20123;-65
2024/03/22 07:59:23;;;;;;;25.50;12.43;;;9.40;97.30;;;;;;5065787;28;20456;-65
2024/03/22 08:01:48;;;;;;;22.90;12.82;;;9.40;97.50;;;;;;5064891;28;20534;-64
2024/03/22 08:04:14;;;;;;;28.52;13.35;;;9.30;97.70;;;;;;5052575;28;20146;-65
2024/03/22 08:06:40;;;;;;;23.55;12.70;;;9.30;97.90;;;;;;5052941;28;20044;-65
2024/03/22 08:09:05;;;;;;;20.38;9.95;;;9.20;98.40;;;;;;5060042;28;20063;-65
2024/03/22 08:11:31;;;;;;;24.83;12.25;;;9.20;98.90;;;;;;5064023;28;20149;-67
2024/03/22 08:14:02;;;;;;;25.52;12.35;;;9.10;99.20;;;;;;5065944;28;20185;-65
2024/03/22 08:16:27;;;;;;;;;;;9.10;99.30;;;;;;5060978;28;20113;-66
2024/03/22 08:18:53;;;;;;;23.60;12.10;;;9.10;99.40;;;;;;5054845;28;20340;-65
2024/03/22 08:21:19;;;;;;;24.58;12.75;;;9.10;99.50;;;;;;5058183;28;20110;-65
2024/03/22 08:23:44;;;;;;;22.88;12.07;;;9.10;99.60;;;;;;5057835;28;20523;-67
2024/03/22 08:26:10;;;;;;;22.08;11.82;;;9.10;99.60;;;;;;5034568;28;20172;-65
2024/03/22 08:28:35;;;;;;;27.88;13.63;;;9.10;99.70;;;;;;5058200;28;20456;-66
2024/03/22 08:31:04;;;;;;;23.88;11.38;;;9.10;99.80;;;;;;5064597;28;20029;-66
2024/03/22 08:33:30;;;;;;;25.92;12.82;;;9.10;99.80;;;;;;5060924;28;20039;-65
2024/03/22 08:35:56;;;;;;;27.58;12.38;;;;;;;;;;5059683;28;20113;-65
2024/03/22 08:38:21;;;;;;;26.45;12.77;;;9.20;99.90;;;;;;5059846;28;20048;-66
2024/03/22 08:40:48;;;;;;;24.23;11.88;;;9.20;99.90;;;;;;5062183;28;20064;-65
2024/03/22 08:43:13;;;;;;;27.38;13.23;;;9.20;99.90;;;;;;5063516;28;20044;-66
2024/03/22 08:45:39;;;;;;;26.92;12.38;;;9.30;99.90;;;;;;5055904;28;20037;-65
2024/03/22 08:48:05;;;;;;;25.38;13.38;;;9.30;99.90;;;;;;5057091;28;20039;-66
2024/03/22 08:50:30;;;;;;;22.55;12.10;;;9.30;99.90;;;;;;5064832;28;20055;-65
2024/03/22 08:52:56;;;;;;;29.55;13.48;;;9.30;99.90;;;;;;5059353;28;20036;-66
2024/03/22 08:55:21;;;;;;;29.88;13.38;;;;;;;;;;5061449;28;20060;-66
2024/03/22 08:57:47;;;;;;;23.42;11.18;;;9.30;99.90;;;;;;5064278;28;20064;-66
2024/03/22 09:00:13;;;;;;;22.75;11.40;;;9.20;99.90;;;;;;5068720;28;20051;-65
2024/03/22 09:02:38;;;;;;;28.30;13.20;;;9.20;99.90;;;;;;5058879;28;20157;-65
2024/03/22 09:05:05;;;;;;;23.05;11.68;;;;;;;;;;5060531;28;20093;-66
2024/03/22 09:07:30;;;;;;;24.45;11.77;;;9.20;99.90;;;;;;5062911;28;20049;-65
2024/03/22 09:09:56;;;;;;;24.73;12.02;;;9.20;99.90;;;;;;5065541;28;20045;-66
2024/03/22 09:12:22;;;;;;;25.20;12.30;;;9.20;99.90;;;;;;5059866;28;20051;-65
2024/03/22 09:14:47;;;;;;;25.05;12.50;;;9.20;99.90;;;;;;5066381;28;20154;-65
2024/03/22 09:17:12;;;;;;;27.02;12.20;;;9.20;99.90;;;;;;5069190;28;20036;-66
2024/03/22 09:19:38;;;;;;;26.63;11.88;;;9.20;99.90;;;;;;5065989;28;20121;-65
2024/03/22 09:22:04;;;;;;;21.20;12.05;;;9.20;99.90;;;;;;5068384;28;20039;-66
2024/03/22 09:24:29;;;;;;;28.63;12.75;;;9.20;99.90;;;;;;5042220;28;20039;-65
2024/03/22 09:26:55;;;;;;;27.10;11.98;;;9.20;99.90;;;;;;5058462;28;20044;-66
2024/03/22 09:29:20;;;;;;;25.10;10.95;;;9.20;99.90;;;;;;5065374;28;20031;-66
2024/03/22 09:31:46;;;;;;;24.17;11.73;;;9.30;99.90;;;;;;5064533;28;20028;-66
2024/03/22 09:34:12;;;;;;;26.10;13.27;;;9.20;99.90;;;;;;5061290;28;20025;-66
2024/03/22 09:36:38;;;;;;;23.52;10.88;;;;;;;;;;5066928;28;20029;-65
2024/03/22 09:39:04;;;;;;;24.30;12.18;;;9.30;99.90;;;;;;5054280;28;20024;-65
2024/03/22 09:41:32;;;;;;;22.77;10.90;;;9.30;99.90;;;;;;5062188;28;20097;-65
2024/03/22 09:44:00;;;;;;;26.42;11.95;;;9.30;99.90;;;;;;5062948;28;20044;-66
2024/03/22 09:46:26;;;;;;;26.88;13.35;;;9.30;99.90;;;;;;5067414;28;20080;-65
2024/03/22 09:48:53;;;;;;;22.90;12.07;;;9.30;99.90;;;;;;5066218;28;20084;-66
2024/03/22 09:51:19;;;;;;;23.77;11.45;;;9.30;99.90;;;;;;5068339;28;20044;-65
2024/03/22 09:53:48;;;;;;;28.42;12.15;;;9.30;99.90;;;;;;5065673;28;20161;-67
2024/03/22 09:56:15;;;;;;;23.92;11.23;;;9.30;99.90;;;;;;5058641;28;20119;-66
2024/03/22 09:58:44;;;;;;;23.75;12.45;;;9.30;99.80;;;;;;5055954;28;20032;-65
2024/03/22 10:01:11;;;;;;;23.70;13.02;;;9.30;99.50;;;;;;5064044;28;20135;-66
2024/03/22 10:03:37;;;;;;;21.20;11.48;;;9.30;99.40;;;;;;5057123;28;20453;-65
2024/03/22 10:06:02;;;;;;;22.98;11.52;;;9.30;99.50;;;;;;5064412;28;20052;-65
2024/03/22 10:08:28;;;;;;;25.75;12.77;;;9.40;99.50;;;;;;5056261;28;20433;-66
2024/03/22 10:10:53;;;;;;;28.00;11.48;;;9.30;99.40;;;;;;5059627;28;20044;-66
2024/03/22 10:13:19;;;;;;;22.35;10.95;;;9.40;99.40;;;;;;5059430;28;20385;-65
2024/03/22 10:15:45;;;;;;;26.83;11.52;;;9.40;99.10;;;;;;5065048;28;20066;-65
2024/03/22 10:18:11;;;;;;;24.15;11.77;;;9.40;98.70;;;;;;5059879;28;20089;-66
2024/03/22 10:20:37;;;;;;;27.58;12.70;;;9.40;98.10;;;;;;5056121;28;20050;-66
2024/03/22 10:23:02;;;;;;;26.50;11.50;;;9.50;97.40;;;;;;5066288;28;20086;-65
2024/03/22 10:25:28;;;;;;;22.95;12.32;;;9.50;97.70;;;;;;5034238;28;20497;-66
2024/03/22 10:27:55;;;;;;;20.33;11.45;;;9.50;97.90;;;;;;5057282;28;20346;-65
2024/03/22 10:30:22;;;;;;;20.70;12.35;;;9.40;98.00;;;;;;5066736;28;20032;-67
2024/03/22 10:32:48;;;;;;;21.55;11.35;;;9.40;98.30;;;;;;5059457;28;20068;-66
2024/03/22 10:35:16;;;;;;;21.08;11.38;;;9.30;98.60;;;;;;5061972;28;20042;-65
2024/03/22 10:37:42;;;;;;;18.60;9.90;;;9.30;99.10;;;;;;5065580;28;20495;-67
2024/03/22 10:40:09;;;;;;;21.10;10.88;;;9.30;99.50;;;;;;5065656;28;20183;-66
2024/03/22 10:42:36;;;;;;;21.65;10.15;;;9.30;99.60;;;;;;5058970;28;20108;-65
2024/03/22 10:45:03;;;;;;;20.00;9.40;;;9.30;99.80;;;;;;5056583;28;20040;-65
2024/03/22 10:47:31;;;;;;;21.65;9.77;;;9.40;99.90;;;;;;5067845;28;20106;-66
2024/03/22 10:50:10;;;;;;;17.50;9.73;;;9.30;99.90;;;;;;5056760;28;20097;-65
2024/03/22 10:52:41;;;;;;;17.25;9.35;;;9.30;99.90;;;;;;5060555;28;20196;-66
2024/03/22 10:55:12;;;;;;;16.20;8.30;;;9.30;99.90;;;;;;5064569;28;20404;-65
2024/03/22 10:57:38;;;;;;;16.33;8.00;;;9.30;99.90;;;;;;5066500;28;20113;-66
2024/03/22 11:00:09;;;;;;;17.55;8.70;;;9.30;99.90;;;;;;5059952;28;20128;-67
2024/03/22 11:02:35;;;;;;;17.33;8.20;;;9.30;99.90;;;;;;5063389;28;20091;-65
2024/03/22 11:05:01;;;;;;;16.08;7.82;;;9.30;99.90;;;;;;5063798;28;20039;-65
2024/03/22 11:07:30;;;;;;;16.60;8.07;;;9.30;99.90;;;;;;5065137;28;20135;-65
2024/03/22 11:09:57;;;;;;;16.58;7.47;;;9.30;99.90;;;;;;5060800;28;20032;-66
2024/03/22 11:12:25;;;;;;;16.92;6.57;;;9.20;99.90;;;;;;5066084;28;20075;-65
2024/03/22 11:14:51;;;;;;;14.02;7.40;;;9.20;99.90;;;;;;5066225;28;20027;-66
2024/03/22 11:17:18;;;;;;;14.23;7.55;;;9.20;99.90;;;;;;5064280;28;20030;-65
2024/03/22 11:19:43;;;;;;;12.00;6.70;;;9.30;99.90;;;;;;5059014;28;20033;-66
2024/03/22 11:22:10;;;;;;;11.38;6.43;;;9.40;99.90;;;;;;5058300;28;20088;-66
2024/03/22 11:24:37;;;;;;;14.68;7.22;;;9.40;99.90;;;;;;5033008;28;20350;-66
2024/03/22 11:27:03;;;;;;;13.25;6.53;;;9.50;99.90;;;;;;5062025;28;20039;-66
2024/03/22 11:29:29;;;;;;;12.65;6.95;;;9.50;99.70;;;;;;5058438;28;20029;-67
2024/03/22 11:31:54;;;;;;;12.45;6.70;;;9.50;99.70;;;;;;5064190;28;20036;-66
2024/03/22 11:34:20;;;;;;;13.52;6.03;;;9.50;99.80;;;;;;5064025;28;20040;-66
2024/03/22 11:36:46;;;;;;;14.40;6.85;;;9.50;99.60;;;;;;5065717;28;20028;-66
2024/03/22 11:39:11;;;;;;;14.27;7.68;;;9.50;99.80;;;;;;5060415;28;20506;-66
2024/03/22 11:41:37;;;;;;;13.43;7.03;;;9.50;99.80;;;;;;5060689;28;20028;-66
2024/03/22 11:44:03;;;;;;;16.02;8.43;;;9.40;99.90;;;;;;5065055;28;20077;-68
2024/03/22 11:46:29;;;;;;;16.60;8.23;;;9.40;99.90;;;;;;5066674;28;20059;-65
2024/03/22 11:48:55;;;;;;;19.13;9.45;;;9.30;99.90;;;;;;5064527;28;20021;-65
2024/03/22 11:51:21;;;;;;;13.65;7.47;;;9.30;99.90;;;;;;5063468;28;20040;-65
2024/03/22 11:53:53;;;;;;;18.95;10.00;;;9.30;99.90;;;;;;5060803;28;20356;-66
2024/03/22 11:56:20;;;;;;;13.27;7.65;;;9.30;99.90;;;;;;5057710;28;20024;-66
2024/03/22 11:58:47;;;;;;;13.88;7.57;;;9.20;99.90;;;;;;5065039;28;20185;-65
2024/03/22 12:01:13;;;;;;;18.10;7.60;;;9.20;99.90;;;;;;5062685;28;20020;-66
2024/03/22 12:03:40;;;;;;;17.13;9.07;;;9.30;99.90;;;;;;5065741;28;20020;-65
2024/03/22 12:06:06;;;;;;;16.65;7.65;;;9.30;99.90;;;;;;5066245;28;20108;-66
2024/03/22 12:08:31;;;;;;;15.15;8.18;;;9.30;99.90;;;;;;5055388;28;20446;-65
2024/03/22 12:10:56;;;;;;;17.42;8.70;;;9.40;99.90;;;;;;5058805;28;20037;-66
2024/03/22 12:13:22;;;;;;;14.18;7.82;;;9.40;99.70;;;;;;5060503;28;20084;-65
2024/03/22 12:15:48;;;;;;;14.68;7.93;;;9.50;99.70;;;;;;5065071;28;20115;-67
2024/03/22 12:18:13;;;;;;;14.77;8.00;;;9.50;99.40;;;;;;5066269;28;20086;-66
2024/03/22 12:20:39;;;;;;;12.25;6.63;;;9.60;99.30;;;;;;5062625;28;20021;-66
2024/03/22 12:23:05;;;;;;;14.77;6.93;;;;;;;;;;5063996;28;23475;-65
2024/03/22 12:25:30;;;;;;;9.23;5.72;;;9.60;99.40;;;;;;5032820;28;20038;-66
2024/03/22 12:27:55;;;;;;;8.88;4.63;;;9.40;99.50;;;;;;5058343;28;20029;-65
2024/03/22 12:30:22;;;;;;;9.23;4.38;;;9.30;99.70;;;;;;5062997;28;20465;-66
2024/03/22 12:32:47;;;;;;;10.45;5.10;;;9.30;99.80;;;;;;5060158;28;20405;-66
2024/03/22 12:35:13;;;;;;;11.07;5.03;;;9.30;99.90;;;;;;5068778;28;20044;-66
2024/03/22 12:37:39;;;;;;;10.50;4.47;;;9.30;99.90;;;;;;5068531;28;20376;-66